Etusivu
METAR-TAF:

METAR-TAF

Lentoasemat :

Chehalis, Washington, Yhdysvallat

Leveyspiiri: 46-40-37N, Pituuspiiri: 122-58-58W, korkeus merenpinnasta: 54 m

Tämänhetkinen sää

Tämä raportti tehtiin 7 minuuttia sitten, kello 00.55 UTC
tyyntä
Lämpötila 9°C
Kosteus 93%
Ilmanpaine 1011 hPa
Näkyvyys: 16.1 km
Hajonneita pilviä 6500 ft:n korkeudessa
Pilvistä 7500 ft:n korkeudessa

METAR: KCLS 070055Z AUTO 00000KT 10SM BKN065 OVC075 09/08 A2985 RMK AO2

Aika: 17:02 (01:02 UTC)


TAF: puuttuu

Säähavainnot ja -ennusteet yli 4000 lentoasemalta (METAR- ja TAF-raportit).

Käytössä olevat sääasemat on merkitty karttaan keltaisilla ja punaisilla pisteillä.

Aseta hiiri pisteen päälle nähdäksesi sääaseman nimen.

Klikkaa sitten nähdäksesi säähavainnot ja -ennusteet.

Kartan vaihtaminen: klikkaa mustalla rastilla varustettuja vihreitä pisteitä, niin voit zoomata sisään; viivalla varustettua vihreää pistettä, niin voit zoomata ulos tai vihreitä nuolia, niin pääset viereisille kartoille.


METAR-TAF: